createdAt,value
2018-11-28T00:00:31.635Z,32.25
2018-11-28T00:03:18.690Z,33.30
2018-11-28T00:05:59.104Z,32.13
2018-11-28T00:08:38.269Z,32.98
2018-11-28T00:11:18.288Z,33.05
2018-11-28T00:13:58.009Z,31.60
2018-11-28T00:16:37.301Z,33.10
2018-11-28T00:19:17.937Z,33.90
2018-11-28T00:21:57.529Z,32.90
2018-11-28T00:24:38.466Z,32.75
2018-11-28T00:27:18.985Z,33.33
2018-11-28T00:29:59.424Z,32.65
2018-11-28T00:32:40.242Z,32.88
2018-11-28T00:35:19.877Z,33.75
2018-11-28T00:37:59.152Z,35.78
2018-11-28T00:40:40.466Z,34.60
2018-11-28T00:43:19.882Z,33.08
2018-11-28T00:46:00.746Z,34.15
2018-11-28T00:48:39.187Z,36.53
2018-11-28T00:51:18.157Z,35.00
2018-11-28T00:53:56.901Z,33.45
2018-11-28T00:56:36.112Z,35.10
2018-11-28T00:59:16.858Z,36.38
2018-11-28T01:01:55.418Z,33.83
2018-11-28T01:04:34.961Z,34.78
2018-11-28T01:07:15.871Z,35.05
2018-11-28T01:09:56.317Z,32.67
2018-11-28T01:12:36.085Z,37.30
2018-11-28T01:15:09.776Z,33.42
2018-11-28T01:17:49.067Z,33.08
2018-11-28T01:20:28.605Z,35.10
2018-11-28T01:23:07.979Z,32.38
2018-11-28T01:25:47.364Z,31.55
2018-11-28T01:28:27.791Z,33.73
2018-11-28T01:31:07.356Z,35.13
2018-11-28T01:33:46.586Z,32.95
2018-11-28T01:36:25.578Z,33.67
2018-11-28T01:39:04.193Z,33.13
2018-11-28T01:41:44.485Z,32.83
2018-11-28T01:44:22.700Z,32.85
2018-11-28T01:47:01.634Z,30.57
2018-11-28T01:49:40.436Z,34.38
2018-11-28T01:52:20.203Z,32.17
2018-11-28T01:54:58.541Z,32.17
2018-11-28T01:57:39.736Z,33.75
2018-11-28T02:00:30.798Z,32.13
2018-11-28T02:03:11.337Z,32.73
2018-11-28T02:05:49.735Z,31.40
2018-11-28T02:08:29.146Z,31.50
2018-11-28T02:11:08.188Z,31.57
2018-11-28T02:13:47.403Z,34.15
2018-11-28T02:16:26.918Z,34.55
2018-11-28T02:19:05.418Z,32.60
2018-11-28T02:21:45.113Z,33.30
2018-11-28T02:24:24.203Z,32.90
2018-11-28T02:27:03.736Z,33.00
2018-11-28T02:29:41.635Z,31.45
2018-11-28T02:32:21.636Z,34.05
2018-11-28T02:35:00.659Z,35.23
2018-11-28T02:37:41.634Z,36.35
2018-11-28T02:40:21.043Z,33.45
2018-11-28T02:43:00.932Z,32.17
2018-11-28T02:45:40.400Z,32.17
2018-11-28T02:48:18.938Z,31.85
2018-11-28T02:50:59.711Z,31.95
2018-11-28T02:53:40.398Z,33.83
2018-11-28T02:56:19.586Z,34.58
2018-11-28T02:58:57.752Z,32.55
2018-11-28T03:01:36.947Z,32.70
2018-11-28T03:04:15.839Z,32.23
2018-11-28T03:06:56.144Z,33.08
2018-11-28T03:09:36.321Z,32.58
2018-11-28T03:12:15.302Z,31.68
2018-11-28T03:14:43.883Z,32.67
2018-11-28T03:17:25.491Z,33.28
2018-11-28T03:20:02.859Z,31.97
2018-11-28T03:22:41.632Z,32.48
2018-11-28T03:25:21.266Z,32.88
2018-11-28T03:28:01.360Z,33.15
2018-11-28T03:30:41.634Z,31.90
2018-11-28T03:33:21.644Z,33.23
2018-11-28T03:36:02.633Z,32.35
2018-11-28T03:38:41.597Z,33.20
2018-11-28T03:41:20.739Z,33.83
2018-11-28T03:44:01.639Z,31.52
2018-11-28T03:46:42.819Z,34.25
2018-11-28T03:49:21.639Z,34.27
2018-11-28T03:52:01.377Z,33.48
2018-11-28T03:54:41.636Z,31.57
2018-11-28T03:57:19.359Z,30.80
2018-11-28T03:59:58.209Z,32.20
2018-11-28T04:02:39.347Z,30.40
2018-11-28T04:05:18.234Z,30.20
2018-11-28T04:07:58.606Z,30.72
2018-11-28T04:10:37.716Z,30.55
2018-11-28T04:13:18.182Z,33.18
2018-11-28T04:15:57.723Z,32.67
2018-11-28T04:18:36.765Z,34.08
2018-11-28T04:21:15.806Z,31.07
2018-11-28T04:23:57.474Z,30.90
2018-11-28T04:26:36.518Z,30.95
2018-11-28T04:29:15.007Z,31.62
2018-11-28T04:31:57.574Z,32.95
2018-11-28T04:34:36.620Z,33.83
2018-11-28T04:37:19.452Z,34.05
2018-11-28T04:39:56.357Z,32.17
2018-11-28T04:42:37.289Z,31.62
2018-11-28T04:45:12.726Z,32.17
2018-11-28T04:47:53.772Z,33.40
2018-11-28T04:50:32.936Z,33.80
2018-11-28T04:53:11.633Z,34.48
2018-11-28T04:55:50.342Z,32.05
2018-11-28T04:58:28.953Z,33.73
2018-11-28T05:01:08.277Z,34.20
2018-11-28T05:03:48.816Z,32.35
2018-11-28T05:06:28.984Z,32.28
2018-11-28T05:09:08.046Z,31.23
2018-11-28T05:11:47.891Z,32.55
2018-11-28T05:14:27.356Z,34.13
2018-11-28T05:17:07.498Z,37.17
2018-11-28T05:19:45.915Z,33.65
2018-11-28T05:22:24.702Z,35.95
2018-11-28T05:25:04.746Z,33.83
2018-11-28T05:27:45.185Z,35.35
2018-11-28T05:30:25.425Z,33.35
2018-11-28T05:33:05.043Z,35.25
2018-11-28T05:35:45.159Z,34.35
2018-11-28T05:38:27.403Z,34.03
2018-11-28T05:41:07.505Z,34.23
2018-11-28T05:43:47.457Z,35.43
2018-11-28T05:46:28.602Z,34.98
2018-11-28T05:49:15.015Z,33.83
2018-11-28T05:51:49.629Z,34.23
2018-11-28T05:54:29.575Z,35.15
2018-11-28T05:57:08.837Z,34.80
2018-11-28T05:59:49.734Z,37.13
2018-11-28T06:02:28.623Z,35.80
2018-11-28T06:05:08.661Z,35.73
2018-11-28T06:07:48.879Z,33.30
2018-11-28T06:10:28.394Z,35.88
2018-11-28T06:13:08.145Z,36.28
2018-11-28T06:15:47.602Z,35.35
2018-11-28T06:18:26.671Z,34.95
2018-11-28T06:21:05.459Z,34.05
2018-11-28T06:23:44.703Z,32.38
2018-11-28T06:26:26.820Z,35.13
2018-11-28T06:29:06.140Z,35.65
2018-11-28T06:31:42.598Z,37.35
2018-11-28T06:34:24.442Z,33.88
2018-11-28T06:37:03.156Z,34.43
2018-11-28T06:39:42.872Z,34.80
2018-11-28T06:42:21.633Z,35.68
2018-11-28T06:45:00.531Z,37.13
2018-11-28T06:47:38.995Z,34.45
2018-11-28T06:50:21.062Z,34.38
2018-11-28T06:53:00.876Z,33.23
2018-11-28T06:55:39.923Z,34.30
2018-11-28T06:58:18.886Z,34.38
2018-11-28T07:00:59.001Z,34.27
2018-11-28T07:03:38.491Z,34.10
2018-11-28T07:06:17.885Z,33.83
2018-11-28T07:08:58.824Z,34.85
2018-11-28T07:11:37.115Z,35.00
2018-11-28T07:14:13.914Z,33.53
2018-11-28T07:16:55.152Z,32.38
2018-11-28T07:19:32.857Z,34.13
2018-11-28T07:22:13.057Z,34.95
2018-11-28T07:24:51.631Z,35.15
2018-11-28T07:27:30.468Z,34.45
2018-11-28T07:30:10.204Z,34.60
2018-11-28T07:32:49.170Z,33.33
2018-11-28T07:35:28.495Z,32.63
2018-11-28T07:38:07.731Z,34.18
2018-11-28T07:40:48.320Z,34.20
2018-11-28T07:43:27.089Z,32.33
2018-11-28T07:46:05.902Z,32.95
2018-11-28T07:48:46.221Z,32.30
2018-11-28T07:51:25.889Z,32.83
2018-11-28T07:54:07.350Z,32.25
2018-11-28T07:56:48.469Z,33.55
2018-11-28T07:59:29.236Z,33.38
2018-11-28T08:02:08.002Z,31.93
2018-11-28T08:04:46.338Z,35.52
2018-11-28T08:07:25.356Z,30.97
2018-11-28T08:10:04.735Z,39.27
2018-11-28T08:12:46.743Z,38.78
2018-11-28T08:15:24.556Z,33.00
2018-11-28T08:18:03.758Z,29.35
2018-11-28T08:20:43.816Z,30.82
2018-11-28T08:23:21.559Z,30.45
2018-11-28T08:26:00.148Z,30.48
2018-11-28T08:28:38.989Z,30.52
2018-11-28T08:31:17.879Z,32.23
2018-11-28T08:36:40.016Z,33.53
2018-11-28T08:39:17.628Z,33.65
2018-11-28T08:41:56.939Z,31.40
2018-11-28T08:44:38.161Z,35.30
2018-11-28T08:47:16.928Z,34.85
2018-11-28T08:49:56.718Z,34.83
2018-11-28T08:52:36.508Z,33.78
2018-11-28T08:55:15.915Z,31.20
2018-11-28T08:58:04.190Z,32.03
2018-11-28T09:00:43.155Z,30.37
2018-11-28T09:03:23.148Z,31.17
2018-11-28T09:06:02.639Z,30.90
2018-11-28T09:08:42.483Z,31.00
2018-11-28T09:11:20.423Z,31.20
2018-11-28T09:14:04.293Z,30.77
2018-11-28T09:16:41.631Z,30.43
2018-11-28T09:19:20.797Z,31.02
2018-11-28T09:22:00.689Z,29.90
2018-11-28T09:24:40.151Z,32.25
2018-11-28T09:27:20.494Z,23.85
2018-11-28T09:29:59.288Z,26.40
2018-11-28T09:32:39.625Z,28.52
2018-11-28T09:35:20.139Z,28.32
2018-11-28T09:38:02.409Z,26.57
2018-11-28T09:40:41.620Z,31.23
2018-11-28T09:43:21.631Z,31.70
2018-11-28T09:46:01.560Z,31.60
2018-11-28T09:48:41.626Z,31.57
2018-11-28T09:51:18.864Z,28.05
2018-11-28T09:54:00.755Z,25.35
2018-11-28T09:56:40.553Z,28.50
2018-11-28T09:59:21.493Z,29.20
2018-11-28T10:02:00.604Z,30.30
2018-11-28T10:04:39.594Z,28.23
2018-11-28T10:07:18.892Z,29.37
2018-11-28T10:09:55.679Z,27.10
2018-11-28T10:12:33.870Z,28.10
2018-11-28T10:15:15.711Z,31.60
2018-11-28T10:17:55.756Z,30.23
2018-11-28T10:20:35.596Z,29.70
2018-11-28T10:23:14.509Z,21.80
2018-11-28T10:25:52.532Z,29.30
2018-11-28T10:28:31.296Z,25.40
2018-11-28T10:31:11.632Z,28.25
2018-11-28T10:33:50.827Z,30.20
2018-11-28T10:36:30.440Z,29.27
2018-11-28T10:39:09.332Z,28.25
2018-11-28T10:41:50.405Z,27.02
2018-11-28T10:44:27.570Z,28.90
2018-11-28T10:47:06.588Z,27.82
2018-11-28T10:49:42.926Z,27.37
2018-11-28T10:52:21.636Z,26.23
2018-11-28T10:54:59.807Z,26.05
2018-11-28T10:57:38.148Z,26.65
2018-11-28T11:00:22.416Z,28.62
2018-11-28T11:03:05.229Z,26.30
2018-11-28T11:05:45.673Z,24.67
2018-11-28T11:08:28.069Z,25.12
2018-11-28T11:11:10.831Z,28.65
2018-11-28T11:14:56.339Z,26.68
2018-11-28T11:17:35.531Z,27.15
2018-11-28T11:20:15.024Z,26.85
2018-11-28T11:22:53.317Z,23.85
2018-11-28T11:25:31.629Z,68.37
2018-11-28T11:28:00.398Z,20.75
2018-11-28T11:30:29.219Z,64.72
2018-11-28T11:32:57.941Z,22.67
2018-11-28T11:35:25.421Z,27.65
2018-11-28T11:37:53.161Z,30.15
2018-11-28T11:40:21.257Z,38.95
2018-11-28T11:42:51.968Z,26.00
2018-11-28T11:45:20.380Z,27.20
2018-11-28T11:47:48.469Z,23.90
2018-11-28T11:50:21.154Z,30.88
2018-11-28T11:53:01.642Z,26.75
2018-11-28T11:55:40.984Z,40.17
2018-11-28T11:58:21.640Z,42.10
2018-11-28T12:01:01.642Z,31.55
2018-11-28T12:03:41.642Z,21.73
2018-11-28T12:06:19.371Z,24.75
2018-11-28T12:08:49.954Z,19.25
2018-11-28T12:11:20.329Z,21.70
2018-11-28T12:13:49.515Z,19.37
2018-11-28T12:16:28.742Z,28.52
2018-11-28T12:19:08.576Z,21.57
2018-11-28T12:21:54.823Z,21.07
2018-11-28T12:24:25.248Z,19.82
2018-11-28T12:26:54.602Z,19.40
2018-11-28T12:29:23.388Z,41.23
2018-11-28T12:31:58.354Z,19.23
2018-11-28T12:34:37.356Z,16.80
2018-11-28T12:37:18.044Z,19.40
2018-11-28T12:39:56.313Z,22.93
2018-11-28T12:42:36.105Z,18.92
2018-11-28T12:45:18.698Z,18.77
2018-11-28T12:47:58.435Z,27.67
2018-11-28T12:50:33.576Z,18.32
2018-11-28T12:53:11.641Z,19.35
2018-11-28T12:55:51.648Z,23.98
2018-11-28T12:58:28.773Z,26.93
2018-11-28T13:01:07.444Z,22.45
2018-11-28T13:03:46.437Z,20.52
2018-11-28T13:06:29.079Z,17.75
2018-11-28T13:09:13.268Z,19.40
2018-11-28T13:11:53.335Z,18.20
2018-11-28T13:14:33.325Z,24.50
2018-11-28T13:17:11.643Z,19.05
2018-11-28T13:19:51.642Z,26.17
2018-11-28T13:22:30.850Z,29.32
2018-11-28T13:25:09.944Z,17.65
2018-11-28T13:27:48.432Z,20.27
2018-11-28T13:30:29.525Z,19.95
2018-11-28T13:33:07.967Z,18.98
2018-11-28T13:35:37.786Z,20.40
2018-11-28T13:38:07.517Z,19.50
2018-11-28T13:40:35.992Z,21.97
2018-11-28T13:43:05.912Z,21.20
2018-11-28T13:45:35.257Z,21.35
2018-11-28T13:48:13.193Z,20.77
2018-11-28T13:50:51.755Z,42.05
2018-11-28T13:53:26.289Z,25.95
2018-11-28T13:58:45.258Z,31.65
2018-11-28T14:01:20.322Z,31.60
2018-11-28T14:03:59.243Z,25.82
2018-11-28T14:06:38.806Z,25.75
2018-11-28T14:09:17.546Z,37.95
2018-11-28T14:11:58.367Z,29.80
2018-11-28T14:14:41.478Z,43.80
2018-11-28T14:17:21.640Z,61.48
2018-11-28T14:19:59.362Z,29.85
2018-11-28T14:22:39.352Z,28.17
2018-11-28T14:25:21.644Z,26.00
2018-11-28T14:27:59.885Z,30.77
2018-11-28T14:30:41.150Z,25.68
2018-11-28T14:33:21.070Z,29.50
2018-11-28T14:36:00.036Z,31.65
2018-11-28T14:38:39.601Z,26.70
2018-11-28T14:41:19.165Z,33.13
2018-11-28T14:43:58.564Z,27.17
2018-11-28T14:46:38.702Z,26.55
2018-11-28T14:49:18.264Z,28.75
2018-11-28T14:51:57.168Z,27.87
2018-11-28T14:54:36.071Z,27.60
2018-11-28T14:57:18.066Z,28.05
2018-11-28T14:59:56.429Z,26.15
2018-11-28T15:02:37.996Z,25.90
2018-11-28T15:05:21.642Z,27.00
2018-11-28T15:08:01.640Z,26.33
2018-11-28T15:11:04.192Z,27.77
2018-11-28T15:13:43.762Z,28.10
2018-11-28T15:16:21.643Z,27.77
2018-11-28T15:19:01.643Z,30.30
2018-11-28T15:21:41.641Z,28.90
2018-11-28T15:24:10.256Z,27.13
2018-11-28T15:26:41.640Z,27.98
2018-11-28T15:29:21.130Z,29.42
2018-11-28T15:32:00.675Z,27.20
2018-11-28T15:34:39.665Z,29.02
2018-11-28T15:37:18.707Z,29.32
2018-11-28T15:39:57.746Z,32.35
2018-11-28T15:42:35.325Z,27.30
2018-11-28T15:45:03.142Z,28.40
2018-11-28T15:47:40.975Z,27.37
2018-11-28T15:50:20.713Z,28.23
2018-11-28T15:52:49.231Z,28.52
2018-11-28T15:55:27.895Z,27.98
2018-11-28T15:58:07.934Z,28.42
2018-11-28T16:00:46.313Z,29.42
2018-11-28T16:03:25.693Z,30.68
2018-11-28T16:06:05.508Z,30.88
2018-11-28T16:08:45.053Z,28.47
2018-11-28T16:11:25.169Z,28.87
2018-11-28T16:14:03.961Z,29.18
2018-11-28T16:16:45.301Z,29.45
2018-11-28T16:19:24.092Z,28.83
2018-11-28T16:22:02.495Z,29.05
2018-11-28T16:24:41.641Z,29.55
2018-11-28T16:27:21.641Z,28.77
2018-11-28T16:30:00.380Z,30.68
2018-11-28T16:32:40.398Z,30.62
2018-11-28T16:35:20.918Z,31.48
2018-11-28T16:38:00.802Z,29.87
2018-11-28T16:40:40.195Z,33.48
2018-11-28T16:43:20.736Z,28.85
2018-11-28T16:45:59.677Z,30.40
2018-11-28T16:48:39.294Z,30.72
2018-11-28T16:51:19.232Z,28.50
2018-11-28T16:53:59.655Z,28.45
2018-11-28T16:56:38.613Z,30.20
2018-11-28T16:59:18.181Z,29.02
2018-11-28T17:01:57.895Z,29.27
2018-11-28T17:04:38.065Z,29.70
2018-11-28T17:07:17.829Z,31.35
2018-11-28T17:09:57.904Z,29.35
2018-11-28T17:12:37.264Z,30.08
2018-11-28T17:15:18.779Z,29.48
2018-11-28T17:18:01.095Z,31.60
2018-11-28T17:20:41.645Z,30.50
2018-11-28T17:23:21.326Z,33.38
2018-11-28T17:26:01.641Z,33.48
2018-11-28T17:28:41.640Z,34.80
2018-11-28T17:31:21.598Z,33.33
2018-11-28T17:34:00.515Z,32.40
2018-11-28T17:36:39.170Z,32.93
2018-11-28T17:39:21.598Z,31.90
2018-11-28T17:42:00.564Z,32.40
2018-11-28T17:44:38.780Z,30.92
2018-11-28T17:47:19.218Z,33.70
2018-11-28T17:49:57.540Z,30.25
2018-11-28T17:52:36.777Z,33.55
2018-11-28T17:55:20.544Z,31.82
2018-11-28T17:57:58.784Z,31.50
2018-11-28T18:00:38.200Z,34.33
2018-11-28T18:03:18.077Z,34.25
2018-11-28T18:05:57.608Z,31.97
2018-11-28T18:08:37.329Z,33.95
2018-11-28T18:11:21.439Z,34.43
2018-11-28T18:14:00.906Z,36.17
2018-11-28T18:16:40.501Z,37.85
2018-11-28T18:19:18.987Z,37.05
2018-11-28T18:21:58.055Z,34.75
2018-11-28T18:24:37.824Z,35.85
2018-11-28T18:27:15.860Z,36.65
2018-11-28T18:29:55.080Z,34.88
2018-11-28T18:32:34.922Z,36.70
2018-11-28T18:35:14.834Z,36.60
2018-11-28T18:37:52.525Z,33.00
2018-11-28T18:40:31.640Z,35.43
2018-11-28T18:43:11.038Z,38.58
2018-11-28T18:45:51.630Z,39.15
2018-11-28T18:48:29.814Z,37.25
2018-11-28T18:51:09.429Z,38.23
2018-11-28T18:53:49.589Z,37.15
2018-11-28T18:56:31.089Z,36.42
2018-11-28T18:59:11.640Z,37.35
2018-11-28T19:01:51.572Z,39.35
2018-11-28T19:04:31.010Z,37.50
2018-11-28T19:07:09.201Z,41.50
2018-11-28T19:09:51.610Z,39.33
2018-11-28T19:12:31.641Z,41.63
2018-11-28T19:15:11.640Z,38.38
2018-11-28T19:17:51.591Z,38.70
2018-11-28T19:20:35.014Z,37.78
2018-11-28T19:23:14.949Z,40.75
2018-11-28T19:25:54.167Z,39.95
2018-11-28T19:28:33.629Z,37.75
2018-11-28T19:31:13.100Z,39.30
2018-11-28T19:33:51.639Z,39.48
2018-11-28T19:36:31.640Z,42.98
2018-11-28T19:39:11.593Z,39.30
2018-11-28T19:41:50.499Z,40.95
2018-11-28T19:44:30.051Z,39.98
2018-11-28T19:47:09.991Z,40.23
2018-11-28T19:49:47.660Z,41.15
2018-11-28T19:52:28.123Z,40.55
2018-11-28T19:55:06.442Z,37.40
2018-11-28T19:57:52.584Z,41.37
2018-11-28T20:00:30.575Z,40.55
2018-11-28T20:03:10.641Z,38.53
2018-11-28T20:05:49.680Z,38.98
2018-11-28T20:08:29.272Z,40.45
2018-11-28T20:11:07.687Z,40.83
2018-11-28T20:13:47.304Z,43.13
2018-11-28T20:16:25.547Z,42.55
2018-11-28T20:19:04.564Z,45.63
2018-11-28T20:21:43.436Z,42.00
2018-11-28T20:24:22.943Z,44.80
2018-11-28T20:27:00.684Z,41.77
2018-11-28T20:29:40.450Z,40.78
2018-11-28T20:32:20.393Z,43.13
2018-11-28T20:35:02.950Z,42.13
2018-11-28T20:37:41.172Z,42.15
2018-11-28T20:40:24.042Z,42.00
2018-11-28T20:43:04.383Z,43.73
2018-11-28T20:45:44.296Z,44.45
2018-11-28T20:48:24.586Z,41.80
2018-11-28T20:51:02.143Z,43.75
2018-11-28T20:53:41.217Z,40.98
2018-11-28T20:56:21.711Z,38.85
2018-11-28T20:59:01.785Z,43.75
2018-11-28T21:01:41.848Z,43.30
2018-11-28T21:04:23.110Z,48.92
2018-11-28T21:07:00.852Z,41.65
2018-11-28T21:09:44.519Z,41.30
2018-11-28T21:12:23.735Z,41.80
2018-11-28T21:15:03.550Z,41.02
2018-11-28T21:17:43.992Z,43.00
2018-11-28T21:20:24.643Z,39.13
2018-11-28T21:23:06.320Z,39.88
2018-11-28T21:25:46.362Z,41.02
2018-11-28T21:28:24.639Z,40.73
2018-11-28T21:31:03.495Z,37.90
2018-11-28T21:33:44.414Z,39.98
2018-11-28T21:36:23.213Z,39.30
2018-11-28T21:39:03.594Z,39.38
2018-11-28T21:41:44.032Z,39.50
2018-11-28T21:44:23.853Z,39.33
2018-11-28T21:47:03.370Z,36.88
2018-11-28T21:49:44.640Z,38.45
2018-11-28T21:52:24.300Z,41.20
2018-11-28T21:55:04.262Z,40.55
2018-11-28T21:57:44.607Z,36.83
2018-11-28T22:00:30.849Z,39.48
2018-11-28T22:03:10.085Z,39.63
2018-11-28T22:05:48.329Z,37.23
2018-11-28T22:08:29.448Z,39.90
2018-11-28T22:11:09.936Z,39.27
2018-11-28T22:13:50.501Z,37.50
2018-11-28T22:16:29.820Z,38.53
2018-11-28T22:19:09.564Z,37.42
2018-11-28T22:21:47.223Z,37.95
2018-11-28T22:24:26.164Z,38.85
2018-11-28T22:27:04.560Z,36.77
2018-11-28T22:29:43.999Z,40.43
2018-11-28T22:32:21.012Z,38.00
2018-11-28T22:35:00.632Z,37.45
2018-11-28T22:37:39.771Z,36.88
2018-11-28T22:40:29.339Z,42.78
2018-11-28T22:43:10.929Z,39.40
2018-11-28T22:45:50.745Z,39.63
2018-11-28T22:48:31.521Z,40.28
2018-11-28T22:51:12.101Z,42.17
2018-11-28T22:53:53.069Z,40.48
2018-11-28T22:56:31.758Z,36.40
2018-11-28T22:59:12.002Z,39.30
2018-11-28T23:01:53.343Z,38.95
2018-11-28T23:04:31.636Z,38.30
2018-11-28T23:07:13.800Z,37.53
2018-11-28T23:09:52.665Z,39.90
2018-11-28T23:12:32.154Z,38.70
2018-11-28T23:15:12.872Z,37.63
2018-11-28T23:17:55.024Z,37.80
2018-11-28T23:20:32.279Z,37.88
2018-11-28T23:23:12.793Z,36.65
2018-11-28T23:25:51.820Z,39.10
2018-11-28T23:28:31.916Z,39.58
2018-11-28T23:31:10.444Z,40.88
2018-11-28T23:33:51.411Z,37.88
2018-11-28T23:36:29.923Z,37.33
2018-11-28T23:39:08.365Z,40.55
2018-11-28T23:41:49.208Z,36.30
2018-11-28T23:44:28.699Z,37.10
2018-11-28T23:47:06.813Z,36.53
2018-11-28T23:49:45.830Z,39.03
2018-11-28T23:52:25.897Z,37.85
2018-11-28T23:55:04.637Z,37.28
2018-11-28T23:57:44.584Z,35.40
